< Typhoon 196914 1969 Season Typhoon 196916 >
Typhoon 196915 (IDA)
General InformationTrack Information on Google Maps || Disaster Info.ResourceGoogle EarthGE AnimationAtom FeedGeoJSON
Detalied Best Track (Time Zone = UTC)
Year Month Day Hour Lat. Long. Pressure (hPa) Wind (kt) Class Image Chart
1969 10 14 00 11.0 150.0 1009 0 2 -- Chart
1969 10 14 06 11.0 149.2 1007 0 2 -- Chart
1969 10 14 12 11.2 148.4 1007 0 2 -- Chart
1969 10 14 18 11.6 147.9 1007 0 2 -- Chart
1969 10 15 00 12.2 147.6 1007 0 2 -- Chart
1969 10 15 06 12.9 147.0 1006 0 2 -- Chart
1969 10 15 12 13.6 146.5 1006 0 2 -- Chart
1969 10 15 18 14.0 145.9 1006 0 2 -- Chart
1969 10 16 00 14.4 145.5 1005 0 2 -- Chart
1969 10 16 06 15.1 145.1 1000 0 2 -- Chart
1969 10 16 12 15.8 144.8 995 0 9 -- Chart
1969 10 16 18 16.2 144.7 985 0 9 -- Chart
1969 10 17 00 16.6 144.7 975 0 9 -- Chart
1969 10 17 06 17.2 144.8 965 0 9 -- Chart
1969 10 17 12 17.6 145.0 945 0 9 -- Chart
1969 10 17 18 18.2 145.3 925 0 9 -- Chart
1969 10 18 00 19.0 145.6 915 0 9 -- Chart
1969 10 18 06 19.5 145.8 920 0 9 -- Chart
1969 10 18 12 19.9 146.0 920 0 9 -- Chart
1969 10 18 18 20.6 146.4 920 0 9 -- Chart
1969 10 19 00 21.4 146.7 925 0 9 -- Chart
1969 10 19 06 21.9 146.9 930 0 9 -- Chart
1969 10 19 12 22.6 147.2 930 0 9 -- Chart
1969 10 19 18 23.4 147.7 930 0 9 -- Chart
1969 10 20 00 24.4 148.2 930 0 9 -- Chart
1969 10 20 06 25.0 148.7 930 0 9 -- Chart
1969 10 20 12 25.5 149.6 935 0 9 -- Chart
1969 10 20 18 26.2 150.3 940 0 9 -- Chart
1969 10 21 00 27.3 151.4 945 0 9 -- Chart
1969 10 21 06 28.2 152.6 950 0 9 -- Chart
1969 10 21 12 29.0 153.8 955 0 9 -- Chart
1969 10 21 18 29.9 155.1 955 0 9 -- Chart
1969 10 22 00 30.8 156.2 965 0 9 -- Chart
1969 10 22 06 32.0 157.0 965 0 9 -- Chart
1969 10 22 12 33.2 158.0 970 0 9 -- Chart
1969 10 22 18 34.3 159.0 975 0 9 -- Chart
1969 10 23 00 35.7 160.4 975 0 9 -- Chart
1969 10 23 06 37.0 162.0 975 0 9 -- Chart
1969 10 23 12 38.4 164.1 980 0 9 -- Chart
1969 10 23 18 39.8 166.8 980 0 9 -- Chart
1969 10 24 00 41.2 170.0 985 0 9 -- Chart
1969 10 24 06 42.0 173.0 986 0 9 -- Chart
1969 10 24 12 42.8 175.8 986 0 9 -- Chart
1969 10 24 18 43.4 178.3 990 0 6 -- Chart
1969 10 25 00 44.0 181.0 990 0 6 -- Chart
Japan Meteorological Agency Best Track Data | Correction Date : 1991-07-16
< Typhoon 196914 1969 Season Typhoon 196916 >

Help